createdAt,value
2022-09-15T00:00:22.989Z,16.20
2022-09-15T00:02:51.152Z,16.20
2022-09-15T00:05:19.797Z,16.20
2022-09-15T00:07:48.609Z,16.20
2022-09-15T00:10:18.985Z,16.30
2022-09-15T00:12:47.078Z,16.30
2022-09-15T00:15:16.051Z,16.30
2022-09-15T00:17:44.417Z,16.30
2022-09-15T00:20:12.829Z,16.30
2022-09-15T00:22:41.137Z,16.30
2022-09-15T00:25:09.453Z,16.30
2022-09-15T00:27:38.944Z,16.30
2022-09-15T00:30:08.364Z,16.30
2022-09-15T00:32:36.530Z,16.30
2022-09-15T00:35:05.155Z,16.30
2022-09-15T00:37:33.285Z,16.30
2022-09-15T00:40:01.515Z,16.30
2022-09-15T00:42:29.835Z,16.30
2022-09-15T00:45:00.294Z,16.30
2022-09-15T00:47:30.189Z,16.30
2022-09-15T00:50:01.312Z,16.30
2022-09-15T00:52:33.097Z,16.30
2022-09-15T00:55:03.185Z,16.30
2022-09-15T00:57:32.850Z,16.30
2022-09-15T01:00:03.881Z,16.30
2022-09-15T01:02:33.917Z,16.30
2022-09-15T01:05:03.241Z,16.30
2022-09-15T01:07:34.685Z,16.30
2022-09-15T01:10:09.909Z,16.30
2022-09-15T01:12:38.005Z,16.30
2022-09-15T01:15:08.372Z,16.30
2022-09-15T01:17:49.398Z,16.30
2022-09-15T01:20:49.546Z,16.30
2022-09-15T01:23:45.601Z,16.30
2022-09-15T01:26:47.171Z,16.30
2022-09-15T01:30:03.180Z,16.30
2022-09-15T01:32:56.948Z,16.30
2022-09-15T01:35:32.153Z,16.30
2022-09-15T01:38:02.337Z,16.30
2022-09-15T01:40:33.102Z,16.30
2022-09-15T01:43:02.033Z,16.40
2022-09-15T01:45:31.302Z,16.40
2022-09-15T01:48:01.300Z,16.40
2022-09-15T01:50:31.269Z,16.40
2022-09-15T01:53:02.022Z,16.40
2022-09-15T01:55:33.245Z,16.40
2022-09-15T01:58:01.417Z,16.40
2022-09-15T02:00:30.835Z,16.40
2022-09-15T02:03:01.943Z,16.40
2022-09-15T02:05:33.176Z,16.40
2022-09-15T02:08:05.174Z,16.40
2022-09-15T02:10:36.012Z,16.40
2022-09-15T02:13:17.269Z,16.40
2022-09-15T02:15:48.241Z,16.40
2022-09-15T02:18:19.604Z,16.40
2022-09-15T02:20:49.464Z,16.40
2022-09-15T02:23:19.718Z,16.40
2022-09-15T02:25:49.530Z,16.40
2022-09-15T02:28:17.926Z,16.50
2022-09-15T02:30:46.711Z,16.50
2022-09-15T02:33:18.240Z,16.50
2022-09-15T02:35:46.343Z,16.50
2022-09-15T02:38:14.606Z,16.50
2022-09-15T02:40:44.531Z,16.50
2022-09-15T02:43:16.765Z,16.60
2022-09-15T02:45:45.013Z,16.60
2022-09-15T02:48:13.202Z,16.60
2022-09-15T02:50:42.733Z,16.60
2022-09-15T02:53:11.296Z,16.60
2022-09-15T02:55:40.133Z,16.60
2022-09-15T02:58:08.958Z,16.60
2022-09-15T03:00:38.655Z,16.60
2022-09-15T03:03:07.113Z,16.60
2022-09-15T03:05:35.188Z,16.60
2022-09-15T03:08:04.895Z,16.70
2022-09-15T03:10:33.916Z,16.60
2022-09-15T03:13:02.141Z,16.70
2022-09-15T03:15:30.372Z,16.70
2022-09-15T03:17:58.420Z,16.70
2022-09-15T03:20:28.358Z,16.70
2022-09-15T03:22:56.771Z,16.70
2022-09-15T03:25:27.747Z,16.70
2022-09-15T03:27:55.935Z,16.70
2022-09-15T03:30:24.231Z,16.70
2022-09-15T03:32:52.324Z,16.70
2022-09-15T03:35:20.753Z,16.70
2022-09-15T03:37:48.939Z,16.70
2022-09-15T03:40:17.748Z,16.70
2022-09-15T03:42:47.684Z,16.70
2022-09-15T03:45:15.970Z,16.70
2022-09-15T03:47:44.280Z,16.70
2022-09-15T03:50:12.434Z,16.70
2022-09-15T03:52:40.523Z,16.70
2022-09-15T03:55:09.340Z,16.70
2022-09-15T03:57:37.699Z,16.70
2022-09-15T04:00:09.285Z,16.70
2022-09-15T04:02:37.472Z,16.70
2022-09-15T04:05:06.277Z,16.70
2022-09-15T04:07:34.525Z,16.70
2022-09-15T04:10:02.936Z,16.70
2022-09-15T04:12:32.423Z,16.70
2022-09-15T04:15:00.515Z,16.70
2022-09-15T04:17:30.107Z,16.70
2022-09-15T04:19:58.315Z,16.70
2022-09-15T04:22:26.654Z,16.70
2022-09-15T04:24:54.985Z,16.70
2022-09-15T04:27:23.446Z,16.70
2022-09-15T04:29:52.406Z,16.70
2022-09-15T04:32:20.546Z,16.70
2022-09-15T04:34:50.178Z,16.70
2022-09-15T04:37:19.026Z,16.70
2022-09-15T04:39:47.170Z,16.70
2022-09-15T04:42:15.311Z,16.70
2022-09-15T04:44:43.609Z,16.70
2022-09-15T04:47:11.827Z,16.70
2022-09-15T04:49:39.990Z,16.70
2022-09-15T04:52:09.908Z,16.70
2022-09-15T04:54:38.337Z,16.70
2022-09-15T04:57:06.556Z,16.70
2022-09-15T04:59:35.010Z,16.70
2022-09-15T05:02:03.396Z,16.70
2022-09-15T05:04:31.842Z,16.70
2022-09-15T05:07:00.141Z,16.70
2022-09-15T05:09:31.296Z,16.80
2022-09-15T05:11:59.651Z,16.80
2022-09-15T05:14:27.796Z,16.80
2022-09-15T05:16:55.930Z,16.80
2022-09-15T05:19:24.118Z,16.80
2022-09-15T05:21:52.281Z,16.80
2022-09-15T05:24:20.503Z,16.80
2022-09-15T05:26:50.245Z,16.80
2022-09-15T05:29:18.352Z,16.90
2022-09-15T05:31:46.501Z,16.90
2022-09-15T05:34:15.595Z,16.90
2022-09-15T05:36:43.759Z,16.90
2022-09-15T05:39:12.033Z,16.90
2022-09-15T05:41:40.226Z,16.90
2022-09-15T05:44:11.337Z,16.90
2022-09-15T05:46:39.785Z,16.90
2022-09-15T05:49:08.890Z,16.90
2022-09-15T05:51:37.513Z,17.00
2022-09-15T05:54:05.898Z,16.90
2022-09-15T05:56:34.242Z,17.00
2022-09-15T05:59:02.467Z,17.00
2022-09-15T06:01:32.206Z,17.00
2022-09-15T06:04:00.545Z,17.00
2022-09-15T06:06:28.703Z,17.00
2022-09-15T06:08:59.202Z,17.00
2022-09-15T06:11:30.597Z,16.90
2022-09-15T06:14:04.121Z,17.00
2022-09-15T06:16:37.137Z,16.90
2022-09-15T06:19:06.325Z,16.70
2022-09-15T06:21:35.102Z,16.50
2022-09-15T06:24:04.661Z,16.40
2022-09-15T06:26:32.979Z,16.40
2022-09-15T06:29:01.997Z,16.30
2022-09-15T06:31:31.775Z,16.20
2022-09-15T06:34:02.483Z,16.20
2022-09-15T06:36:31.092Z,16.10
2022-09-15T06:38:59.678Z,16.00
2022-09-15T06:41:35.324Z,16.00
2022-09-15T06:44:07.096Z,16.00
2022-09-15T06:46:35.237Z,15.90
2022-09-15T06:49:04.850Z,15.90
2022-09-15T06:51:35.564Z,15.80
2022-09-15T06:54:04.145Z,15.80
2022-09-15T06:56:37.107Z,15.70
2022-09-15T06:59:06.248Z,15.70
2022-09-15T07:01:34.635Z,15.70
2022-09-15T07:04:05.764Z,15.60
2022-09-15T07:06:34.186Z,15.70
2022-09-15T07:09:02.938Z,15.70
2022-09-15T07:11:31.431Z,15.70
2022-09-15T07:13:59.704Z,15.70
2022-09-15T07:16:27.966Z,15.70
2022-09-15T07:18:57.213Z,15.70
2022-09-15T07:21:26.757Z,15.70
2022-09-15T07:23:55.373Z,15.70
2022-09-15T07:26:24.738Z,15.80
2022-09-15T07:28:53.594Z,15.80
2022-09-15T07:31:23.752Z,15.80
2022-09-15T07:33:52.072Z,15.90
2022-09-15T07:36:20.206Z,15.80
2022-09-15T07:38:50.271Z,15.90
2022-09-15T07:41:19.847Z,16.00
2022-09-15T07:43:48.403Z,16.00
2022-09-15T07:46:16.495Z,16.00
2022-09-15T07:48:45.880Z,16.00
2022-09-15T07:51:13.946Z,16.00
2022-09-15T07:53:42.057Z,16.00
2022-09-15T07:56:11.655Z,16.00
2022-09-15T07:58:39.789Z,16.10
2022-09-15T08:01:09.091Z,16.10
2022-09-15T08:03:37.225Z,16.20
2022-09-15T08:06:05.478Z,16.20
2022-09-15T08:08:33.635Z,16.10
2022-09-15T08:11:01.702Z,16.20
2022-09-15T08:13:31.714Z,16.30
2022-09-15T08:16:06.573Z,16.30
2022-09-15T08:18:35.005Z,16.30
2022-09-15T08:21:06.001Z,16.40
2022-09-15T08:23:34.075Z,16.40
2022-09-15T08:26:02.157Z,16.40
2022-09-15T08:28:31.699Z,16.40
2022-09-15T08:31:01.287Z,16.40
2022-09-15T08:33:29.665Z,16.30
2022-09-15T08:36:01.806Z,16.40
2022-09-15T08:38:29.889Z,16.40
2022-09-15T08:41:00.141Z,16.40
2022-09-15T08:43:28.994Z,16.40
2022-09-15T08:46:00.046Z,16.30
2022-09-15T08:48:31.098Z,16.30
2022-09-15T08:50:59.555Z,16.40
2022-09-15T08:53:29.006Z,16.40
2022-09-15T08:55:57.712Z,16.30
2022-09-15T08:58:26.718Z,16.30
2022-09-15T09:01:00.402Z,16.40
2022-09-15T09:03:42.344Z,16.40
2022-09-15T09:06:14.581Z,16.30
2022-09-15T09:09:01.719Z,16.40
2022-09-15T09:11:37.652Z,16.40
2022-09-15T09:14:08.525Z,16.50
2022-09-15T09:16:44.680Z,16.50
2022-09-15T09:19:32.872Z,16.50
2022-09-15T09:22:03.531Z,16.50
2022-09-15T09:24:35.733Z,16.60
2022-09-15T09:27:03.818Z,16.60
2022-09-15T09:29:33.503Z,16.60
2022-09-15T09:32:03.189Z,16.70
2022-09-15T09:34:35.449Z,16.70
2022-09-15T09:37:10.161Z,16.70
2022-09-15T09:39:38.365Z,16.70
2022-09-15T09:42:06.979Z,16.70
2022-09-15T09:44:35.507Z,16.70
2022-09-15T09:47:05.026Z,16.80
2022-09-15T09:49:35.485Z,16.80
2022-09-15T09:52:04.783Z,16.90
2022-09-15T09:54:33.940Z,16.80
2022-09-15T09:57:23.323Z,16.80
2022-09-15T09:59:51.833Z,16.90
2022-09-15T10:02:23.371Z,16.90
2022-09-15T10:04:52.374Z,16.90
2022-09-15T10:07:21.581Z,16.90
2022-09-15T10:09:52.719Z,16.90
2022-09-15T10:12:23.757Z,16.90
2022-09-15T10:14:53.243Z,16.90
2022-09-15T10:17:23.385Z,16.90
2022-09-15T10:19:52.774Z,16.90
2022-09-15T10:22:29.172Z,16.90
2022-09-15T10:24:57.558Z,16.90
2022-09-15T10:27:30.702Z,16.90
2022-09-15T10:30:00.912Z,17.00
2022-09-15T10:32:31.780Z,17.00
2022-09-15T10:35:01.565Z,16.90
2022-09-15T10:37:36.114Z,16.90
2022-09-15T10:40:11.381Z,16.90
2022-09-15T10:42:47.121Z,17.00
2022-09-15T10:45:20.336Z,17.00
2022-09-15T10:48:07.205Z,16.90
2022-09-15T10:50:46.111Z,16.80
2022-09-15T10:53:18.180Z,16.80
2022-09-15T10:55:53.377Z,16.70
2022-09-15T10:58:39.907Z,16.70
2022-09-15T11:01:18.783Z,16.70
2022-09-15T11:04:03.963Z,16.70
2022-09-15T11:06:34.345Z,16.80
2022-09-15T11:09:11.688Z,16.80
2022-09-15T11:11:49.779Z,16.80
2022-09-15T11:14:33.253Z,16.80
2022-09-15T11:17:08.536Z,16.80
2022-09-15T11:20:02.161Z,16.80
2022-09-15T11:22:32.759Z,16.80
2022-09-15T11:25:02.090Z,16.80
2022-09-15T11:27:32.211Z,16.90
2022-09-15T11:30:04.154Z,16.90
2022-09-15T11:32:35.665Z,16.90
2022-09-15T11:35:29.233Z,16.90
2022-09-15T11:37:58.886Z,16.80
2022-09-15T11:40:28.689Z,16.80
2022-09-15T11:42:58.842Z,16.90
2022-09-15T11:45:28.598Z,16.90
2022-09-15T11:47:58.002Z,16.90
2022-09-15T11:50:29.604Z,16.90
2022-09-15T11:52:59.088Z,17.00
2022-09-15T11:55:31.670Z,17.00
2022-09-15T11:58:08.850Z,16.90
2022-09-15T12:00:36.976Z,16.90
2022-09-15T12:03:11.942Z,17.00
2022-09-15T12:05:43.195Z,17.00
2022-09-15T12:08:15.410Z,17.00
2022-09-15T12:10:44.616Z,17.00
2022-09-15T12:13:12.801Z,17.00
2022-09-15T12:15:40.898Z,17.00
2022-09-15T12:18:34.395Z,17.00
2022-09-15T12:21:05.245Z,17.00
2022-09-15T12:23:35.090Z,17.00
2022-09-15T12:26:06.480Z,17.00
2022-09-15T12:28:42.523Z,16.90
2022-09-15T12:31:16.620Z,16.90
2022-09-15T12:33:45.413Z,16.90
2022-09-15T12:36:42.778Z,16.80
2022-09-15T12:39:25.523Z,16.80
2022-09-15T12:41:54.210Z,16.80
2022-09-15T12:44:26.261Z,16.80
2022-09-15T12:46:55.392Z,16.80
2022-09-15T12:49:32.255Z,16.70
2022-09-15T12:52:02.375Z,16.70
2022-09-15T12:54:31.787Z,16.70
2022-09-15T12:56:59.811Z,16.70
2022-09-15T12:59:28.272Z,16.70
2022-09-15T13:01:56.455Z,16.70
2022-09-15T13:04:49.529Z,16.70
2022-09-15T13:07:36.048Z,16.60
2022-09-15T13:10:33.205Z,16.60
2022-09-15T13:13:21.262Z,16.50
2022-09-15T13:15:51.344Z,16.50
2022-09-15T13:18:19.495Z,16.30
2022-09-15T13:20:52.125Z,16.30
2022-09-15T13:23:24.022Z,16.20
2022-09-15T13:25:53.305Z,16.20
2022-09-15T13:28:21.449Z,16.30
2022-09-15T13:30:58.284Z,16.20
2022-09-15T13:38:03.956Z,16.30
2022-09-15T13:39:26.913Z,16.30
2022-09-15T13:42:19.519Z,16.30
2022-09-15T13:45:03.483Z,16.30
2022-09-15T13:47:35.319Z,16.20
2022-09-15T13:50:14.776Z,16.10
2022-09-15T13:53:07.608Z,16.20
2022-09-15T13:55:38.663Z,16.10
2022-09-15T14:00:57.623Z,16.20
2022-09-15T14:03:28.234Z,16.20
2022-09-15T14:05:56.430Z,16.20
2022-09-15T14:08:25.993Z,16.20
2022-09-15T14:10:56.238Z,16.20
2022-09-15T14:13:24.999Z,16.30
2022-09-15T14:15:59.959Z,16.30
2022-09-15T14:18:28.208Z,16.30
2022-09-15T14:21:00.947Z,16.30
2022-09-15T14:23:29.148Z,16.30
2022-09-15T14:26:00.412Z,16.30
2022-09-15T14:28:32.192Z,16.30
2022-09-15T14:31:00.623Z,16.30
2022-09-15T14:33:33.252Z,16.30
2022-09-15T14:36:13.779Z,16.20
2022-09-15T14:38:42.232Z,16.10
2022-09-15T14:41:19.553Z,16.20
2022-09-15T14:43:47.782Z,16.20
2022-09-15T14:46:18.028Z,16.20
2022-09-15T14:48:46.331Z,16.20
2022-09-15T14:51:19.588Z,16.20
2022-09-15T14:53:47.758Z,16.20
2022-09-15T14:56:18.829Z,16.20
2022-09-15T14:58:47.608Z,16.10
2022-09-15T15:01:16.875Z,16.10
2022-09-15T15:03:47.656Z,16.10
2022-09-15T15:06:33.065Z,16.10
2022-09-15T15:09:03.301Z,16.10
2022-09-15T15:11:33.232Z,16.10
2022-09-15T15:14:01.384Z,16.10
2022-09-15T15:16:30.817Z,16.10
2022-09-15T15:18:59.141Z,16.10
2022-09-15T15:21:39.251Z,16.10
2022-09-15T15:24:16.478Z,16.10
2022-09-15T15:26:46.493Z,16.00
2022-09-15T15:29:39.687Z,16.00
2022-09-15T15:32:08.028Z,16.00
2022-09-15T15:34:36.374Z,16.00
2022-09-15T15:37:04.583Z,16.00
2022-09-15T15:39:32.851Z,16.00
2022-09-15T15:42:04.373Z,15.90
2022-09-15T15:44:32.883Z,15.90
2022-09-15T15:47:02.789Z,15.90
2022-09-15T15:49:32.519Z,15.90
2022-09-15T15:52:01.748Z,15.90
2022-09-15T15:54:29.913Z,15.90
2022-09-15T15:56:57.970Z,15.90
2022-09-15T15:59:27.475Z,15.80
2022-09-15T16:01:55.900Z,15.80
2022-09-15T16:04:24.017Z,15.80
2022-09-15T16:06:52.077Z,15.80
2022-09-15T16:09:20.761Z,15.80
2022-09-15T16:11:48.902Z,15.80
2022-09-15T16:14:17.253Z,15.90
2022-09-15T16:16:46.759Z,15.70
2022-09-15T16:19:15.196Z,15.70
2022-09-15T16:21:43.330Z,15.70
2022-09-15T16:24:13.968Z,15.70
2022-09-15T16:26:42.776Z,15.60
2022-09-15T16:29:11.031Z,15.60
2022-09-15T16:31:39.198Z,15.60
2022-09-15T16:34:10.611Z,15.70
2022-09-15T16:36:38.678Z,15.70
2022-09-15T16:39:07.026Z,15.70
2022-09-15T16:41:39.297Z,15.60
2022-09-15T16:44:08.334Z,15.60
2022-09-15T16:46:36.444Z,15.60
2022-09-15T16:49:04.741Z,15.60
2022-09-15T16:51:34.143Z,15.50
2022-09-15T16:54:02.308Z,15.50
2022-09-15T16:56:30.366Z,15.50
2022-09-15T16:59:00.412Z,15.50
2022-09-15T17:01:29.067Z,15.50
2022-09-15T17:03:57.596Z,15.40
2022-09-15T17:06:25.667Z,15.50
2022-09-15T17:08:55.721Z,15.50
2022-09-15T17:11:25.574Z,15.50
2022-09-15T17:13:53.782Z,15.40
2022-09-15T17:16:22.055Z,15.40
2022-09-15T17:18:50.254Z,15.40
2022-09-15T17:21:18.563Z,15.40
2022-09-15T17:23:47.391Z,15.30
2022-09-15T17:26:20.775Z,15.40
2022-09-15T17:28:49.003Z,15.40
2022-09-15T17:31:17.938Z,15.40
2022-09-15T17:33:46.123Z,15.40
2022-09-15T17:36:14.806Z,15.30
2022-09-15T17:38:45.193Z,15.10
2022-09-15T17:41:16.189Z,15.10
2022-09-15T17:43:44.364Z,15.10
2022-09-15T17:46:12.671Z,15.10
2022-09-15T17:48:40.844Z,15.10
2022-09-15T17:51:10.450Z,15.10
2022-09-15T17:53:38.817Z,15.10
2022-09-15T17:56:07.324Z,15.10
2022-09-15T17:58:37.213Z,15.10
2022-09-15T18:01:05.778Z,15.10
2022-09-15T18:03:35.067Z,15.10
2022-09-15T18:06:05.343Z,15.00
2022-09-15T18:08:34.048Z,15.00
2022-09-15T18:11:02.368Z,15.00
2022-09-15T18:13:31.379Z,15.00
2022-09-15T18:16:04.480Z,15.00
2022-09-15T18:18:32.730Z,15.00
2022-09-15T18:21:00.842Z,15.00
2022-09-15T18:23:29.666Z,15.00
2022-09-15T18:25:58.160Z,15.00
2022-09-15T18:28:26.304Z,15.00
2022-09-15T18:30:54.431Z,15.10
2022-09-15T18:33:24.785Z,15.10
2022-09-15T18:35:53.677Z,15.10
2022-09-15T18:38:21.920Z,15.00
2022-09-15T18:40:53.468Z,15.00
2022-09-15T18:43:22.126Z,15.00
2022-09-15T18:45:50.419Z,15.10
2022-09-15T18:48:18.617Z,15.00
2022-09-15T18:50:48.098Z,15.00
2022-09-15T18:53:16.252Z,15.00
2022-09-15T18:55:44.418Z,15.00
2022-09-15T18:58:12.740Z,15.00
2022-09-15T19:00:40.867Z,15.00
2022-09-15T19:03:09.642Z,15.00
2022-09-15T19:05:38.645Z,15.00
2022-09-15T19:08:09.495Z,15.00
2022-09-15T19:10:39.489Z,15.00
2022-09-15T19:13:07.745Z,15.00
2022-09-15T19:15:36.032Z,15.00
2022-09-15T19:18:04.295Z,15.00
2022-09-15T19:20:32.410Z,15.00
2022-09-15T19:23:00.615Z,15.10
2022-09-15T19:25:30.075Z,15.00
2022-09-15T19:27:58.253Z,15.00
2022-09-15T19:30:26.404Z,15.00
2022-09-15T19:32:54.563Z,14.90
2022-09-15T19:35:23.112Z,15.00
2022-09-15T19:37:51.347Z,15.00
2022-09-15T19:40:19.624Z,14.90
2022-09-15T19:42:49.105Z,15.00
2022-09-15T19:45:17.682Z,14.90
2022-09-15T19:47:45.769Z,14.80
2022-09-15T19:50:13.851Z,14.80
2022-09-15T19:52:41.900Z,14.80
2022-09-15T19:55:12.066Z,14.70
2022-09-15T19:57:40.738Z,14.70
2022-09-15T20:00:12.048Z,14.70
2022-09-15T20:02:40.305Z,14.90
2022-09-15T20:05:09.460Z,15.00
2022-09-15T20:07:37.799Z,15.00
2022-09-15T20:10:06.697Z,15.10
2022-09-15T20:12:34.899Z,15.10
2022-09-15T20:15:03.146Z,15.10
2022-09-15T20:17:32.701Z,15.00
2022-09-15T20:20:00.868Z,15.00
2022-09-15T20:22:28.925Z,15.00
2022-09-15T20:24:57.512Z,15.00
2022-09-15T20:27:25.594Z,15.10
2022-09-15T20:29:53.832Z,15.10
2022-09-15T20:32:27.513Z,15.10
2022-09-15T20:34:58.446Z,15.10
2022-09-15T20:37:26.585Z,15.10
2022-09-15T20:39:55.323Z,15.10
2022-09-15T20:42:23.429Z,15.10
2022-09-15T20:44:51.511Z,15.10
2022-09-15T20:47:19.632Z,15.10
2022-09-15T20:49:47.823Z,15.00
2022-09-15T20:52:17.347Z,15.10
2022-09-15T20:54:45.484Z,15.00
2022-09-15T20:57:13.752Z,15.00
2022-09-15T20:59:41.917Z,15.10
2022-09-15T21:02:10.960Z,15.00
2022-09-15T21:04:39.184Z,15.00
2022-09-15T21:07:07.516Z,15.00
2022-09-15T21:09:37.173Z,14.90
2022-09-15T21:12:05.508Z,14.80
2022-09-15T21:14:33.764Z,14.80
2022-09-15T21:17:01.821Z,14.70
2022-09-15T21:19:29.926Z,14.80
2022-09-15T21:21:58.649Z,14.70
2022-09-15T21:24:26.791Z,14.70
2022-09-15T21:27:13.506Z,14.60
2022-09-15T21:29:41.698Z,14.60
2022-09-15T21:32:09.966Z,14.60
2022-09-15T21:34:38.139Z,14.50
2022-09-15T21:37:06.340Z,14.50
2022-09-15T21:39:34.497Z,14.40
2022-09-15T21:42:05.408Z,14.40
2022-09-15T21:44:33.734Z,14.40
2022-09-15T21:47:01.847Z,14.30
2022-09-15T21:49:29.949Z,14.30
2022-09-15T21:51:58.276Z,14.30
2022-09-15T21:54:26.409Z,14.30
2022-09-15T21:56:54.533Z,14.30
2022-09-15T21:59:24.525Z,14.20
2022-09-15T22:01:52.952Z,14.20
2022-09-15T22:04:21.198Z,14.20
2022-09-15T22:06:50.322Z,14.20
2022-09-15T22:09:21.445Z,14.20
2022-09-15T22:11:49.662Z,14.20
2022-09-15T22:14:17.806Z,14.20
2022-09-15T22:16:47.404Z,14.10
2022-09-15T22:19:15.653Z,14.10
2022-09-15T22:21:43.846Z,14.10
2022-09-15T22:24:12.851Z,14.10
2022-09-15T22:26:41.280Z,14.10
2022-09-15T22:29:09.546Z,14.10
2022-09-15T22:31:37.779Z,14.10
2022-09-15T22:34:07.385Z,14.10
2022-09-15T22:36:35.510Z,14.10
2022-09-15T22:39:05.522Z,14.10
2022-09-15T22:41:34.572Z,14.10
2022-09-15T22:44:03.347Z,14.10
2022-09-15T22:46:31.505Z,14.10
2022-09-15T22:48:59.906Z,14.10
2022-09-15T22:51:29.414Z,14.10
2022-09-15T22:53:57.847Z,14.00
2022-09-15T22:56:27.179Z,14.00
2022-09-15T22:58:55.764Z,13.90
2022-09-15T23:01:25.106Z,14.00
2022-09-15T23:03:53.347Z,14.00
2022-09-15T23:06:21.487Z,14.00
2022-09-15T23:08:52.668Z,14.00
2022-09-15T23:11:20.915Z,14.00
2022-09-15T23:13:49.103Z,13.90
2022-09-15T23:16:17.315Z,13.90
2022-09-15T23:18:45.444Z,14.00
2022-09-15T23:21:13.675Z,13.90
2022-09-15T23:23:43.235Z,13.90
2022-09-15T23:26:13.192Z,13.90
2022-09-15T23:28:41.526Z,13.90
2022-09-15T23:31:09.766Z,13.90
2022-09-15T23:33:37.942Z,13.90
2022-09-15T23:36:06.997Z,13.90
2022-09-15T23:38:36.398Z,13.80
2022-09-15T23:41:04.669Z,13.80
2022-09-15T23:43:34.239Z,13.80
2022-09-15T23:46:02.595Z,13.80
2022-09-15T23:48:31.665Z,13.80
2022-09-15T23:50:59.879Z,13.80
2022-09-15T23:53:28.131Z,13.80
2022-09-15T23:55:56.184Z,13.80
2022-09-15T23:58:24.763Z,13.80
